sensor_id;sensor_type;location;lat;lon;timestamp;pressure;altitude;pressure_sealevel;temperature;humidity
4449;BME280;2237;51.870;6.160;2022-12-11T00:02:08;101051.25;;;2.65;100.00
4449;BME280;2237;51.870;6.160;2022-12-11T00:04:35;101052.19;;;2.68;100.00
4449;BME280;2237;51.870;6.160;2022-12-11T00:07:01;101044.53;;;2.76;100.00
4449;BME280;2237;51.870;6.160;2022-12-11T00:09:28;101054.88;;;2.77;100.00
4449;BME280;2237;51.870;6.160;2022-12-11T00:11:54;101049.88;;;2.90;100.00
4449;BME280;2237;51.870;6.160;2022-12-11T00:14:20;101047.34;;;2.94;100.00
4449;BME280;2237;51.870;6.160;2022-12-11T00:16:47;101049.88;;;2.91;100.00
4449;BME280;2237;51.870;6.160;2022-12-11T00:19:15;101043.66;;;2.72;100.00
4449;BME280;2237;51.870;6.160;2022-12-11T00:21:41;101049.50;;;2.61;100.00
4449;BME280;2237;51.870;6.160;2022-12-11T00:24:07;101047.84;;;2.66;100.00
4449;BME280;2237;51.870;6.160;2022-12-11T00:26:34;101047.94;;;2.73;100.00
4449;BME280;2237;51.870;6.160;2022-12-11T00:29:00;101053.16;;;2.79;100.00
4449;BME280;2237;51.870;6.160;2022-12-11T00:31:26;101057.44;;;2.77;100.00
4449;BME280;2237;51.870;6.160;2022-12-11T00:33:53;101053.88;;;2.66;100.00
4449;BME280;2237;51.870;6.160;2022-12-11T00:36:24;101054.63;;;2.59;100.00
4449;BME280;2237;51.870;6.160;2022-12-11T00:38:51;101057.97;;;2.54;100.00
4449;BME280;2237;51.870;6.160;2022-12-11T00:41:19;101052.81;;;2.52;100.00
4449;BME280;2237;51.870;6.160;2022-12-11T00:43:46;101050.22;;;2.49;100.00
4449;BME280;2237;51.870;6.160;2022-12-11T00:46:12;101047.41;;;2.34;100.00
4449;BME280;2237;51.870;6.160;2022-12-11T00:48:39;101049.16;;;2.38;100.00
4449;BME280;2237;51.870;6.160;2022-12-11T00:51:06;101045.81;;;2.42;100.00
4449;BME280;2237;51.870;6.160;2022-12-11T00:53:32;101041.59;;;2.47;100.00
4449;BME280;2237;51.870;6.160;2022-12-11T00:55:58;101040.75;;;2.48;100.00
4449;BME280;2237;51.870;6.160;2022-12-11T00:58:25;101029.72;;;2.55;100.00
4449;BME280;2237;51.870;6.160;2022-12-11T01:00:51;101039.25;;;2.62;100.00
4449;BME280;2237;51.870;6.160;2022-12-11T01:03:18;101040.16;;;2.66;100.00
4449;BME280;2237;51.870;6.160;2022-12-11T01:05:54;101032.50;;;2.72;100.00
4449;BME280;2237;51.870;6.160;2022-12-11T01:08:20;101032.66;;;2.84;100.00
4449;BME280;2237;51.870;6.160;2022-12-11T01:10:47;101031.88;;;2.90;100.00
4449;BME280;2237;51.870;6.160;2022-12-11T01:13:14;101034.38;;;2.85;100.00
4449;BME280;2237;51.870;6.160;2022-12-11T01:15:43;101033.53;;;2.86;100.00
4449;BME280;2237;51.870;6.160;2022-12-11T01:18:11;101031.00;;;2.91;100.00
4449;BME280;2237;51.870;6.160;2022-12-11T01:20:39;101035.31;;;2.92;100.00
4449;BME280;2237;51.870;6.160;2022-12-11T01:23:05;101029.19;;;2.82;100.00
4449;BME280;2237;51.870;6.160;2022-12-11T01:25:34;101039.56;;;2.88;100.00
4449;BME280;2237;51.870;6.160;2022-12-11T01:28:03;101033.59;;;2.91;100.00
4449;BME280;2237;51.870;6.160;2022-12-11T01:30:30;101029.31;;;2.91;100.00
4449;BME280;2237;51.870;6.160;2022-12-11T01:32:57;101023.34;;;2.92;100.00
4449;BME280;2237;51.870;6.160;2022-12-11T01:35:25;101025.03;;;2.92;100.00
4449;BME280;2237;51.870;6.160;2022-12-11T01:37:51;101020.75;;;2.92;100.00
4449;BME280;2237;51.870;6.160;2022-12-11T01:40:19;101029.34;;;2.93;100.00
4449;BME280;2237;51.870;6.160;2022-12-11T01:42:45;101035.41;;;2.99;100.00
4449;BME280;2237;51.870;6.160;2022-12-11T01:45:24;101024.31;;;3.02;100.00
4449;BME280;2237;51.870;6.160;2022-12-11T01:47:57;101020.06;;;3.07;100.00
4449;BME280;2237;51.870;6.160;2022-12-11T01:50:26;101028.69;;;3.12;100.00
4449;BME280;2237;51.870;6.160;2022-12-11T01:52:53;101024.41;;;3.14;100.00
4449;BME280;2237;51.870;6.160;2022-12-11T01:55:19;101022.72;;;3.14;100.00
4449;BME280;2237;51.870;6.160;2022-12-11T01:57:48;101020.16;;;3.13;100.00
4449;BME280;2237;51.870;6.160;2022-12-11T02:00:17;101022.72;;;3.13;100.00
4449;BME280;2237;51.870;6.160;2022-12-11T02:02:44;101015.00;;;3.13;100.00
4449;BME280;2237;51.870;6.160;2022-12-11T02:05:11;101020.19;;;3.16;100.00
4449;BME280;2237;51.870;6.160;2022-12-11T02:07:43;101014.97;;;3.10;100.00
4449;BME280;2237;51.870;6.160;2022-12-11T02:10:11;101014.13;;;3.12;100.00
4449;BME280;2237;51.870;6.160;2022-12-11T02:12:45;101023.50;;;3.09;100.00
4449;BME280;2237;51.870;6.160;2022-12-11T02:15:17;101018.28;;;3.03;100.00
4449;BME280;2237;51.870;6.160;2022-12-11T02:18:06;101019.06;;;2.93;100.00
4449;BME280;2237;51.870;6.160;2022-12-11T02:20:52;101020.66;;;2.81;100.00
4449;BME280;2237;51.870;6.160;2022-12-11T02:23:32;101017.13;;;2.75;100.00
4449;BME280;2237;51.870;6.160;2022-12-11T02:29:00;101022.28;;;2.76;100.00
4449;BME280;2237;51.870;6.160;2022-12-11T02:31:36;101016.34;;;2.80;100.00
4449;BME280;2237;51.870;6.160;2022-12-11T02:34:12;101011.22;;;2.83;100.00
4449;BME280;2237;51.870;6.160;2022-12-11T02:36:45;101009.53;;;2.85;100.00
4449;BME280;2237;51.870;6.160;2022-12-11T02:39:15;100998.38;;;2.85;100.00
4449;BME280;2237;51.870;6.160;2022-12-11T02:41:46;101005.22;;;2.81;100.00
4449;BME280;2237;51.870;6.160;2022-12-11T02:44:15;100999.97;;;2.72;100.00
4449;BME280;2237;51.870;6.160;2022-12-11T02:46:43;101005.19;;;2.78;100.00
4449;BME280;2237;51.870;6.160;2022-12-11T02:49:11;100999.16;;;2.79;100.00
4449;BME280;2237;51.870;6.160;2022-12-11T02:51:41;101004.34;;;2.82;100.00
4449;BME280;2237;51.870;6.160;2022-12-11T02:54:15;101004.34;;;2.81;100.00
4449;BME280;2237;51.870;6.160;2022-12-11T02:56:50;100997.38;;;2.72;100.00
4449;BME280;2237;51.870;6.160;2022-12-11T02:59:22;101011.94;;;2.73;100.00
4449;BME280;2237;51.870;6.160;2022-12-11T03:01:51;101001.53;;;2.64;100.00
4449;BME280;2237;51.870;6.160;2022-12-11T03:04:17;100993.81;;;2.63;100.00
4449;BME280;2237;51.870;6.160;2022-12-11T03:06:48;100997.31;;;2.66;100.00
4449;BME280;2237;51.870;6.160;2022-12-11T03:09:16;100996.38;;;2.61;100.00
4449;BME280;2237;51.870;6.160;2022-12-11T03:11:42;100984.34;;;2.59;100.00
4449;BME280;2237;51.870;6.160;2022-12-11T03:14:09;100985.22;;;2.59;100.00
4449;BME280;2237;51.870;6.160;2022-12-11T03:16:46;100990.44;;;2.65;100.00
4449;BME280;2237;51.870;6.160;2022-12-11T03:22:08;100992.25;;;2.72;100.00
4449;BME280;2237;51.870;6.160;2022-12-11T03:25:11;100998.25;;;2.74;100.00
4449;BME280;2237;51.870;6.160;2022-12-11T03:27:52;100999.88;;;2.68;100.00
4449;BME280;2237;51.870;6.160;2022-12-11T03:30:23;100997.19;;;2.57;100.00
4449;BME280;2237;51.870;6.160;2022-12-11T03:32:57;100997.16;;;2.54;100.00
4449;BME280;2237;51.870;6.160;2022-12-11T03:35:44;100998.06;;;2.59;100.00
4449;BME280;2237;51.870;6.160;2022-12-11T03:38:21;101005.78;;;2.58;100.00
4449;BME280;2237;51.870;6.160;2022-12-11T03:40:52;101001.63;;;2.70;100.00
4449;BME280;2237;51.870;6.160;2022-12-11T03:43:20;100991.50;;;2.82;100.00
4449;BME280;2237;51.870;6.160;2022-12-11T03:45:48;100994.84;;;2.75;100.00
4449;BME280;2237;51.870;6.160;2022-12-11T03:48:17;100993.16;;;2.77;100.00
4449;BME280;2237;51.870;6.160;2022-12-11T03:50:45;100974.38;;;2.86;100.00
4449;BME280;2237;51.870;6.160;2022-12-11T03:53:13;100972.66;;;2.85;100.00
4449;BME280;2237;51.870;6.160;2022-12-11T03:55:41;100975.34;;;2.93;100.00
4449;BME280;2237;51.870;6.160;2022-12-11T03:58:08;100975.44;;;3.02;100.00
4449;BME280;2237;51.870;6.160;2022-12-11T04:00:34;100977.22;;;3.12;100.00
4449;BME280;2237;51.870;6.160;2022-12-11T04:03:01;100973.84;;;3.17;100.00
4449;BME280;2237;51.870;6.160;2022-12-11T04:05:46;100970.44;;;3.20;100.00
4449;BME280;2237;51.870;6.160;2022-12-11T04:08:14;100968.78;;;3.23;100.00
4449;BME280;2237;51.870;6.160;2022-12-11T04:10:40;100973.06;;;3.23;100.00
4449;BME280;2237;51.870;6.160;2022-12-11T04:13:08;100968.78;;;3.22;100.00
4449;BME280;2237;51.870;6.160;2022-12-11T04:15:35;100967.06;;;3.24;100.00
4449;BME280;2237;51.870;6.160;2022-12-11T04:18:03;100969.66;;;3.28;100.00
4449;BME280;2237;51.870;6.160;2022-12-11T04:20:48;100971.41;;;3.29;100.00
4449;BME280;2237;51.870;6.160;2022-12-11T04:23:33;100970.56;;;3.32;100.00
4449;BME280;2237;51.870;6.160;2022-12-11T04:26:19;100967.16;;;3.33;100.00
4449;BME280;2237;51.870;6.160;2022-12-11T04:28:48;100970.63;;;3.38;100.00
4449;BME280;2237;51.870;6.160;2022-12-11T04:31:18;100962.94;;;3.41;100.00
4449;BME280;2237;51.870;6.160;2022-12-11T04:33:45;100965.56;;;3.47;100.00
4449;BME280;2237;51.870;6.160;2022-12-11T04:36:12;100963.84;;;3.46;100.00
4449;BME280;2237;51.870;6.160;2022-12-11T04:38:39;100962.16;;;3.48;100.00
4449;BME280;2237;51.870;6.160;2022-12-11T04:41:11;100955.28;;;3.50;100.00
4449;BME280;2237;51.870;6.160;2022-12-11T04:43:38;100947.56;;;3.50;100.00
4449;BME280;2237;51.870;6.160;2022-12-11T04:46:20;100958.75;;;3.55;100.00
4449;BME280;2237;51.870;6.160;2022-12-11T04:48:48;100954.47;;;3.57;100.00
4449;BME280;2237;51.870;6.160;2022-12-11T04:51:22;100953.63;;;3.58;100.00
4449;BME280;2237;51.870;6.160;2022-12-11T04:53:49;100951.06;;;3.58;100.00
4449;BME280;2237;51.870;6.160;2022-12-11T04:56:15;100943.28;;;3.52;100.00
4449;BME280;2237;51.870;6.160;2022-12-11T04:58:43;100942.44;;;3.55;100.00
4449;BME280;2237;51.870;6.160;2022-12-11T05:01:12;100950.22;;;3.59;100.00
4449;BME280;2237;51.870;6.160;2022-12-11T05:03:39;100945.97;;;3.64;100.00
4449;BME280;2237;51.870;6.160;2022-12-11T05:06:06;100948.53;;;3.66;100.00
4449;BME280;2237;51.870;6.160;2022-12-11T05:08:34;100947.69;;;3.65;100.00
4449;BME280;2237;51.870;6.160;2022-12-11T05:11:03;100941.69;;;3.65;100.00
4449;BME280;2237;51.870;6.160;2022-12-11T05:13:31;100943.41;;;3.67;100.00
4449;BME280;2237;51.870;6.160;2022-12-11T05:15:58;100948.53;;;3.63;100.00
4449;BME280;2237;51.870;6.160;2022-12-11T05:18:24;100952.78;;;3.61;100.00
4449;BME280;2237;51.870;6.160;2022-12-11T05:21:02;100958.81;;;3.61;100.00
4449;BME280;2237;51.870;6.160;2022-12-11T05:23:29;100969.13;;;3.66;100.00
4449;BME280;2237;51.870;6.160;2022-12-11T05:26:01;100962.31;;;3.69;100.00
4449;BME280;2237;51.870;6.160;2022-12-11T05:28:30;100957.16;;;3.69;100.00
4449;BME280;2237;51.870;6.160;2022-12-11T05:30:59;100953.66;;;3.61;100.00
4449;BME280;2237;51.870;6.160;2022-12-11T05:33:27;100958.84;;;3.66;100.00
4449;BME280;2237;51.870;6.160;2022-12-11T05:35:53;100958.84;;;3.64;100.00
4449;BME280;2237;51.870;6.160;2022-12-11T05:38:20;100962.25;;;3.63;100.00
4449;BME280;2237;51.870;6.160;2022-12-11T05:41:00;100957.97;;;3.64;100.00
4449;BME280;2237;51.870;6.160;2022-12-11T05:43:28;100946.84;;;3.69;100.00
4449;BME280;2237;51.870;6.160;2022-12-11T05:45:56;100948.59;;;3.70;100.00
4449;BME280;2237;51.870;6.160;2022-12-11T05:48:30;100948.53;;;3.66;100.00
4449;BME280;2237;51.870;6.160;2022-12-11T05:50:58;100951.94;;;3.59;100.00
4449;BME280;2237;51.870;6.160;2022-12-11T05:53:25;100947.59;;;3.55;100.00
4449;BME280;2237;51.870;6.160;2022-12-11T05:55:51;100946.72;;;3.54;100.00
4449;BME280;2237;51.870;6.160;2022-12-11T05:58:18;100948.44;;;3.51;100.00
4449;BME280;2237;51.870;6.160;2022-12-11T06:00:46;100938.13;;;3.48;100.00
4449;BME280;2237;51.870;6.160;2022-12-11T06:03:12;100946.72;;;3.48;100.00
4449;BME280;2237;51.870;6.160;2022-12-11T06:05:40;100939.81;;;3.47;100.00
4449;BME280;2237;51.870;6.160;2022-12-11T06:08:07;100934.69;;;3.47;100.00
4449;BME280;2237;51.870;6.160;2022-12-11T06:10:33;100931.25;;;3.48;100.00
4449;BME280;2237;51.870;6.160;2022-12-11T06:13:00;100921.78;;;3.49;100.00
4449;BME280;2237;51.870;6.160;2022-12-11T06:15:26;100918.41;;;3.54;100.00
4449;BME280;2237;51.870;6.160;2022-12-11T06:17:53;100923.59;;;3.59;100.00
4449;BME280;2237;51.870;6.160;2022-12-11T06:20:19;100925.38;;;3.64;100.00
4449;BME280;2237;51.870;6.160;2022-12-11T06:22:46;100922.78;;;3.64;100.00
4449;BME280;2237;51.870;6.160;2022-12-11T06:25:12;100924.50;;;3.64;100.00
4449;BME280;2237;51.870;6.160;2022-12-11T06:27:39;100929.69;;;3.68;100.00
4449;BME280;2237;51.870;6.160;2022-12-11T06:30:06;100922.84;;;3.70;100.00
4449;BME280;2237;51.870;6.160;2022-12-11T06:32:33;100926.28;;;3.72;100.00
4449;BME280;2237;51.870;6.160;2022-12-11T06:34:59;100933.13;;;3.70;100.00
4449;BME280;2237;51.870;6.160;2022-12-11T06:37:25;100930.59;;;3.73;100.00
4449;BME280;2237;51.870;6.160;2022-12-11T06:39:52;100933.16;;;3.73;100.00
4449;BME280;2237;51.870;6.160;2022-12-11T06:42:18;100938.25;;;3.69;100.00
4449;BME280;2237;51.870;6.160;2022-12-11T06:44:44;100946.00;;;3.67;100.00
4449;BME280;2237;51.870;6.160;2022-12-11T06:47:10;100945.97;;;3.64;100.00
4449;BME280;2237;51.870;6.160;2022-12-11T06:49:37;100942.53;;;3.64;100.00
4449;BME280;2237;51.870;6.160;2022-12-11T06:52:04;100950.28;;;3.65;100.00
4449;BME280;2237;51.870;6.160;2022-12-11T06:54:31;100951.13;;;3.66;100.00
4449;BME280;2237;51.870;6.160;2022-12-11T06:56:57;100948.53;;;3.64;100.00
4449;BME280;2237;51.870;6.160;2022-12-11T06:59:23;100951.94;;;3.63;100.00
4449;BME280;2237;51.870;6.160;2022-12-11T07:01:49;100944.13;;;3.50;100.00
4449;BME280;2237;51.870;6.160;2022-12-11T07:04:16;100950.09;;;3.46;100.00
4449;BME280;2237;51.870;6.160;2022-12-11T07:06:42;100956.97;;;3.47;100.00
4449;BME280;2237;51.870;6.160;2022-12-11T07:09:08;100950.97;;;3.46;100.00
4449;BME280;2237;51.870;6.160;2022-12-11T07:11:35;100952.66;;;3.44;100.00
4449;BME280;2237;51.870;6.160;2022-12-11T07:14:01;100950.13;;;3.47;100.00
4449;BME280;2237;51.870;6.160;2022-12-11T07:16:28;100945.81;;;3.45;100.00
4449;BME280;2237;51.870;6.160;2022-12-11T07:18:54;100953.53;;;3.46;100.00
4449;BME280;2237;51.870;6.160;2022-12-11T07:21:21;100951.75;;;3.36;100.00
4449;BME280;2237;51.870;6.160;2022-12-11T07:23:48;100950.06;;;3.39;100.00
4449;BME280;2237;51.870;6.160;2022-12-11T07:26:18;100949.13;;;3.34;100.00
4449;BME280;2237;51.870;6.160;2022-12-11T07:28:45;100946.63;;;3.39;100.00
4449;BME280;2237;51.870;6.160;2022-12-11T07:31:14;100953.53;;;3.46;100.00
4449;BME280;2237;51.870;6.160;2022-12-11T07:33:41;100966.41;;;3.46;100.00
4449;BME280;2237;51.870;6.160;2022-12-11T07:36:09;100960.41;;;3.47;100.00
4449;BME280;2237;51.870;6.160;2022-12-11T07:38:36;100963.00;;;3.49;100.00
4449;BME280;2237;51.870;6.160;2022-12-11T07:41:13;100968.13;;;3.49;100.00
4449;BME280;2237;51.870;6.160;2022-12-11T07:43:40;100970.69;;;3.44;100.00
4449;BME280;2237;51.870;6.160;2022-12-11T07:46:11;100968.94;;;3.43;100.00
4449;BME280;2237;51.870;6.160;2022-12-11T07:48:39;100961.13;;;3.31;100.00
4449;BME280;2237;51.870;6.160;2022-12-11T07:51:23;100954.19;;;3.25;100.00
4449;BME280;2237;51.870;6.160;2022-12-11T07:53:55;100961.94;;;3.25;100.00
4449;BME280;2237;51.870;6.160;2022-12-11T07:56:22;100973.09;;;3.26;100.00
4449;BME280;2237;51.870;6.160;2022-12-11T07:58:49;100976.53;;;3.25;100.00
4449;BME280;2237;51.870;6.160;2022-12-11T08:01:26;100967.88;;;3.18;100.00
4449;BME280;2237;51.870;6.160;2022-12-11T08:03:53;100967.78;;;3.09;100.00
4449;BME280;2237;51.870;6.160;2022-12-11T08:06:28;100971.13;;;3.01;100.00
4449;BME280;2237;51.870;6.160;2022-12-11T08:08:57;100971.16;;;3.04;100.00
4449;BME280;2237;51.870;6.160;2022-12-11T08:11:24;100969.50;;;3.07;100.00
4449;BME280;2237;51.870;6.160;2022-12-11T08:13:51;100968.59;;;3.04;100.00
4449;BME280;2237;51.870;6.160;2022-12-11T08:16:18;100966.91;;;3.09;100.00
4449;BME280;2237;51.870;6.160;2022-12-11T08:18:45;100968.78;;;3.22;100.00
4449;BME280;2237;51.870;6.160;2022-12-11T08:21:20;100966.41;;;3.45;100.00
4449;BME280;2237;51.870;6.160;2022-12-11T08:23:48;100966.50;;;3.58;100.00
4449;BME280;2237;51.870;6.160;2022-12-11T08:26:17;100972.56;;;3.63;100.00
4449;BME280;2237;51.870;6.160;2022-12-11T08:28:44;100976.03;;;3.65;100.00
4449;BME280;2237;51.870;6.160;2022-12-11T08:31:11;100968.22;;;3.58;100.00
4449;BME280;2237;51.870;6.160;2022-12-11T08:33:39;100970.75;;;3.50;100.00
4449;BME280;2237;51.870;6.160;2022-12-11T08:36:09;100965.53;;;3.44;100.00
4449;BME280;2237;51.870;6.160;2022-12-11T08:38:36;100970.53;;;3.29;100.00
4449;BME280;2237;51.870;6.160;2022-12-11T08:41:10;100972.25;;;3.27;100.00
4449;BME280;2237;51.870;6.160;2022-12-11T08:43:37;100976.50;;;3.23;100.00
4449;BME280;2237;51.870;6.160;2022-12-11T08:46:05;100970.38;;;3.14;100.00
4449;BME280;2237;51.870;6.160;2022-12-11T08:48:36;100972.97;;;3.12;100.00
4449;BME280;2237;51.870;6.160;2022-12-11T08:51:05;100979.00;;;3.16;100.00
4449;BME280;2237;51.870;6.160;2022-12-11T08:53:32;100970.38;;;3.14;100.00
4449;BME280;2237;51.870;6.160;2022-12-11T08:56:06;100968.66;;;3.11;100.00
4449;BME280;2237;51.870;6.160;2022-12-11T08:58:33;100967.75;;;3.08;100.00
4449;BME280;2237;51.870;6.160;2022-12-11T09:01:08;100967.75;;;3.06;100.00
4449;BME280;2237;51.870;6.160;2022-12-11T09:03:36;100966.13;;;3.17;100.00
4449;BME280;2237;51.870;6.160;2022-12-11T09:06:04;100960.28;;;3.30;100.00
4449;BME280;2237;51.870;6.160;2022-12-11T09:08:31;100956.91;;;3.36;100.00
4449;BME280;2237;51.870;6.160;2022-12-11T09:11:06;100962.06;;;3.39;100.00
4449;BME280;2237;51.870;6.160;2022-12-11T09:13:33;100958.50;;;3.25;100.00
4449;BME280;2237;51.870;6.160;2022-12-11T09:16:03;100955.06;;;3.26;100.00
4449;BME280;2237;51.870;6.160;2022-12-11T09:18:30;100956.03;;;3.35;100.00
4449;BME280;2237;51.870;6.160;2022-12-11T09:20:59;100957.00;;;3.48;100.00
4449;BME280;2237;51.870;6.160;2022-12-11T09:23:25;100958.75;;;3.55;100.00
4449;BME280;2237;51.870;6.160;2022-12-11T09:25:52;100966.53;;;3.60;100.00
4449;BME280;2237;51.870;6.160;2022-12-11T09:28:19;100962.19;;;3.53;100.00
4449;BME280;2237;51.870;6.160;2022-12-11T09:30:45;100948.41;;;3.49;100.00
4449;BME280;2237;51.870;6.160;2022-12-11T09:33:12;100957.03;;;3.54;100.00
4449;BME280;2237;51.870;6.160;2022-12-11T09:35:38;100958.84;;;3.64;100.00
4449;BME280;2237;51.870;6.160;2022-12-11T09:38:04;100950.31;;;3.73;100.00
4449;BME280;2237;51.870;6.160;2022-12-11T09:40:31;100948.69;;;3.84;100.00
4449;BME280;2237;51.870;6.160;2022-12-11T09:43:30;100954.66;;;3.81;100.00
4449;BME280;2237;51.870;6.160;2022-12-11T09:45:59;100961.50;;;3.78;100.00
4449;BME280;2237;51.870;6.160;2022-12-11T09:48:28;100962.34;;;3.75;100.00
4449;BME280;2237;51.870;6.160;2022-12-11T09:51:01;100951.19;;;3.73;100.00
4449;BME280;2237;51.870;6.160;2022-12-11T09:53:33;100955.47;;;3.71;100.00
4449;BME280;2237;51.870;6.160;2022-12-11T09:59:05;100947.66;;;3.64;100.00
4449;BME280;2237;51.870;6.160;2022-12-11T10:07:14;100942.63;;;3.77;100.00
4449;BME280;2237;51.870;6.160;2022-12-11T10:17:33;100944.41;;;3.89;100.00
4449;BME280;2237;51.870;6.160;2022-12-11T10:20:17;100947.78;;;3.79;100.00
4449;BME280;2237;51.870;6.160;2022-12-11T10:22:46;100948.63;;;3.78;100.00
4449;BME280;2237;51.870;6.160;2022-12-11T10:25:28;100943.53;;;3.84;100.00
4449;BME280;2237;51.870;6.160;2022-12-11T10:27:56;100946.09;;;3.84;100.00
4449;BME280;2237;51.870;6.160;2022-12-11T10:30:35;100942.53;;;3.67;100.00
4449;BME280;2237;51.870;6.160;2022-12-11T10:33:17;100945.13;;;3.65;100.00
4449;BME280;2237;51.870;6.160;2022-12-11T10:35:50;100946.81;;;3.66;100.00
4449;BME280;2237;51.870;6.160;2022-12-11T10:38:38;100934.84;;;3.68;100.00
4449;BME280;2237;51.870;6.160;2022-12-11T10:41:15;100938.31;;;3.73;100.00
4449;BME280;2237;51.870;6.160;2022-12-11T10:43:48;100936.63;;;3.77;100.00
4449;BME280;2237;51.870;6.160;2022-12-11T10:46:24;100933.97;;;3.68;100.00
4449;BME280;2237;51.870;6.160;2022-12-11T10:48:57;100939.09;;;3.66;100.00
4449;BME280;2237;51.870;6.160;2022-12-11T10:51:33;100933.13;;;3.67;100.00
4449;BME280;2237;51.870;6.160;2022-12-11T10:54:06;100946.00;;;3.67;100.00
4449;BME280;2237;51.870;6.160;2022-12-11T10:56:36;100933.09;;;3.63;100.00
4449;BME280;2237;51.870;6.160;2022-12-11T10:59:03;100934.84;;;3.70;100.00
4449;BME280;2237;51.870;6.160;2022-12-11T11:01:30;100936.53;;;3.66;100.00
4449;BME280;2237;51.870;6.160;2022-12-11T11:04:02;100924.56;;;3.71;100.00
4449;BME280;2237;51.870;6.160;2022-12-11T11:06:29;100920.34;;;3.82;100.00
4449;BME280;2237;51.870;6.160;2022-12-11T11:08:58;100919.50;;;3.89;100.00
4449;BME280;2237;51.870;6.160;2022-12-11T11:11:34;100918.72;;;3.96;100.00
4449;BME280;2237;51.870;6.160;2022-12-11T11:14:14;100908.50;;;4.13;100.00
4449;BME280;2237;51.870;6.160;2022-12-11T11:16:43;100919.72;;;4.24;100.00
4449;BME280;2237;51.870;6.160;2022-12-11T11:19:37;100916.31;;;4.33;100.00
4449;BME280;2237;51.870;6.160;2022-12-11T11:22:07;100913.75;;;4.34;100.00
4449;BME280;2237;51.870;6.160;2022-12-11T11:24:40;100906.03;;;4.37;100.00
4449;BME280;2237;51.870;6.160;2022-12-11T11:27:51;100906.94;;;4.53;100.00
4449;BME280;2237;51.870;6.160;2022-12-11T11:30:04;100906.91;;;4.45;100.00
4449;BME280;2237;51.870;6.160;2022-12-11T11:32:33;100896.63;;;4.44;100.00
4449;BME280;2237;51.870;6.160;2022-12-11T11:37:39;100895.75;;;4.43;100.00
4449;BME280;2237;51.870;6.160;2022-12-11T11:40:18;100900.03;;;4.40;100.00
4449;BME280;2237;51.870;6.160;2022-12-11T11:42:55;100890.53;;;4.36;100.00
4449;BME280;2237;51.870;6.160;2022-12-11T11:45:45;100900.88;;;4.37;100.00
4449;BME280;2237;51.870;6.160;2022-12-11T11:48:23;100904.31;;;4.42;100.00
4449;BME280;2237;51.870;6.160;2022-12-11T11:50:53;100894.00;;;4.35;100.00
4449;BME280;2237;51.870;6.160;2022-12-11T11:53:29;100888.81;;;4.32;100.00
4449;BME280;2237;51.870;6.160;2022-12-11T11:56:00;100894.84;;;4.35;100.00
4449;BME280;2237;51.870;6.160;2022-12-11T11:58:38;100886.28;;;4.38;100.00
4449;BME280;2237;51.870;6.160;2022-12-11T12:01:18;100885.38;;;4.36;100.00
4449;BME280;2237;51.870;6.160;2022-12-11T12:03:46;100886.19;;;4.24;100.00
4449;BME280;2237;51.870;6.160;2022-12-11T12:06:49;100881.78;;;4.00;100.00
4449;BME280;2237;51.870;6.160;2022-12-11T12:09:37;100879.25;;;4.10;100.00
4449;BME280;2237;51.870;6.160;2022-12-11T12:15:09;100871.63;;;4.34;100.00
4449;BME280;2237;51.870;6.160;2022-12-11T12:22:56;100884.50;;;4.28;100.00
4449;BME280;2237;51.870;6.160;2022-12-11T12:25:54;100881.09;;;4.29;100.00
4449;BME280;2237;51.870;6.160;2022-12-11T12:31:28;100876.75;;;4.17;100.00
4449;BME280;2237;51.870;6.160;2022-12-11T12:37:17;100874.09;;;4.10;100.00
4449;BME280;2237;51.870;6.160;2022-12-11T12:45:52;100877.53;;;4.06;100.00
4449;BME280;2237;51.870;6.160;2022-12-11T12:48:24;100874.16;;;4.14;100.00
4449;BME280;2237;51.870;6.160;2022-12-11T12:50:51;100873.31;;;4.20;100.00
4449;BME280;2237;51.870;6.160;2022-12-11T12:53:20;100874.16;;;4.19;100.00
4449;BME280;2237;51.870;6.160;2022-12-11T12:55:49;100872.47;;;4.21;100.00
4449;BME280;2237;51.870;6.160;2022-12-11T12:58:42;100871.63;;;4.26;100.00
4449;BME280;2237;51.870;6.160;2022-12-11T13:01:16;100875.06;;;4.33;100.00
4449;BME280;2237;51.870;6.160;2022-12-11T13:04:03;100868.22;;;4.35;100.00
4449;BME280;2237;51.870;6.160;2022-12-11T13:06:39;100868.22;;;4.36;100.00
4449;BME280;2237;51.870;6.160;2022-12-11T13:11:45;100869.94;;;4.37;100.00
4449;BME280;2237;51.870;6.160;2022-12-11T13:16:41;100873.38;;;4.38;100.00
4449;BME280;2237;51.870;6.160;2022-12-11T13:19:34;100864.72;;;4.27;100.00
4449;BME280;2237;51.870;6.160;2022-12-11T13:24:48;100866.41;;;4.19;100.00
4449;BME280;2237;51.870;6.160;2022-12-11T13:30:24;100857.81;;;4.15;100.00
4449;BME280;2237;51.870;6.160;2022-12-11T13:33:04;100844.06;;;4.09;100.00
4449;BME280;2237;51.870;6.160;2022-12-11T13:35:32;100854.41;;;4.18;100.00
4449;BME280;2237;51.870;6.160;2022-12-11T13:38:05;100862.13;;;4.18;100.00
4449;BME280;2237;51.870;6.160;2022-12-11T13:40:38;100869.00;;;4.19;100.00
4449;BME280;2237;51.870;6.160;2022-12-11T13:43:18;100871.56;;;4.19;100.00
4449;BME280;2237;51.870;6.160;2022-12-11T13:45:50;100875.84;;;4.18;100.00
4449;BME280;2237;51.870;6.160;2022-12-11T13:48:26;100887.03;;;4.19;100.00
4449;BME280;2237;51.870;6.160;2022-12-11T13:50:53;100887.03;;;4.16;100.00
4449;BME280;2237;51.870;6.160;2022-12-11T13:53:21;100886.13;;;4.06;100.00
4449;BME280;2237;51.870;6.160;2022-12-11T13:56:13;100895.56;;;4.03;100.00
4449;BME280;2237;51.870;6.160;2022-12-11T13:58:41;100883.50;;;3.95;100.00
4449;BME280;2237;51.870;6.160;2022-12-11T14:01:11;100880.06;;;3.93;100.00
4449;BME280;2237;51.870;6.160;2022-12-11T14:03:42;100890.41;;;3.99;100.00
4449;BME280;2237;51.870;6.160;2022-12-11T14:06:13;100892.94;;;3.96;100.00
4449;BME280;2237;51.870;6.160;2022-12-11T14:08:47;100886.06;;;3.95;100.00
4449;BME280;2237;51.870;6.160;2022-12-11T14:11:27;100890.41;;;3.99;100.00
4449;BME280;2237;51.870;6.160;2022-12-11T14:13:56;100890.44;;;4.06;100.00
4449;BME280;2237;51.870;6.160;2022-12-11T14:16:24;100890.44;;;4.06;100.00
4449;BME280;2237;51.870;6.160;2022-12-11T14:18:53;100887.81;;;4.04;100.00
4449;BME280;2237;51.870;6.160;2022-12-11T14:21:24;100880.06;;;4.01;100.00
4449;BME280;2237;51.870;6.160;2022-12-11T14:23:53;100877.56;;;4.13;100.00
4449;BME280;2237;51.870;6.160;2022-12-11T14:26:23;100878.44;;;4.17;100.00